This is the latest recevied weather packets stored in our database for station/object WX7FGZ-6. If no packets are shown the sender has not sent any weather packets the latest 10 day(s).
| Time | Temp. | Humidity | Pressure | Rain* | Wind** | Luminosity | Snow |
|---|---|---|---|---|---|---|---|
| 1777684895 | 0.56° C | 53% | 1019.5 hPa | 0 mm | - | - | - |
| 1777684596 | 0.56° C | 51% | 1019.5 hPa | 0 mm | - | - | - |
| 1777684298 | - | - | - | - | - | - | - |
| 1777684296 | 1.11° C | 53% | 1019.4 hPa | 0 mm | - | - | - |
| 1777683996 | 1.11° C | 49% | 1019.5 hPa | 0 mm | - | - | - |
| 1777683696 | 1.11° C | 51% | 1018.8 hPa | 0 mm | - | - | - |
| 1777683396 | 1.67° C | 48% | 1019 hPa | 0 mm | - | - | - |
| 1777683096 | 1.67° C | 47% | 1018.7 hPa | 0 mm | - | - | - |
| 1777682796 | 1.67° C | 47% | 1018.9 hPa | 0 mm | - | - | - |
| 1777682531 | 1.67° C | 47% | 1018.9 hPa | 0 mm | - | - | - |
| 1777682496 | 1.67° C | 47% | 1018.9 hPa | 0 mm | - | - | - |
| 1777682196 | 2.22° C | 46% | 1018.9 hPa | 0 mm | - | - | - |
| 1777681860 | 2.22° C | 43% | 1018.9 hPa | 0 mm | - | - | - |
| 1777681560 | 2.78° C | 41% | 1019 hPa | 0 mm | - | - | - |
| 1777681260 | 2.78° C | 41% | 1019 hPa | 0 mm | - | - | - |
| 1777680960 | 2.78° C | 41% | 1019.2 hPa | 0 mm | - | - | - |
| 1777680660 | 2.78° C | 41% | 1019.1 hPa | 0 mm | - | - | - |
| 1777680360 | 2.78° C | 40% | 1019.3 hPa | 0 mm | - | - | - |
| 1777680293 | 2.78° C | 42% | 1019.2 hPa | 0 mm | - | - | - |
| 1777680060 | 2.78° C | 42% | 1019.2 hPa | 0 mm | - | - | - |
| 1777679460 | 2.78° C | 39% | 1019.9 hPa | 0 mm | - | - | - |
| 1777679160 | 2.78° C | 39% | 1020 hPa | 0 mm | - | - | - |
| 1777678860 | 3.33° C | 40% | 1020 hPa | 0 mm | - | - | - |
| 1777678560 | 3.33° C | 37% | 1020.2 hPa | 0 mm | - | - | - |
| 1777678270 | 3.89° C | 36% | 1020.1 hPa | 0 mm | - | - | - |
* Rain latest hour (hover to see other rain measurements)
** Current wind speed in m/s (hover to see current wind gust speed)